sensor_id;sensor_type;location;lat;lon;timestamp;P1;durP1;ratioP1;P2;durP2;ratioP2
57856;SDS011;43683;48.650;9.290;2023-12-07T00:00:03;12.85;;;9.30;;
57856;SDS011;43683;48.650;9.290;2023-12-07T00:02:29;12.77;;;8.07;;
57856;SDS011;43683;48.650;9.290;2023-12-07T00:04:54;11.55;;;8.15;;
57856;SDS011;43683;48.650;9.290;2023-12-07T00:07:20;15.50;;;9.43;;
57856;SDS011;43683;48.650;9.290;2023-12-07T00:09:45;15.23;;;10.02;;
57856;SDS011;43683;48.650;9.290;2023-12-07T00:12:11;14.10;;;9.23;;
57856;SDS011;43683;48.650;9.290;2023-12-07T00:14:37;15.82;;;9.63;;
57856;SDS011;43683;48.650;9.290;2023-12-07T00:17:02;14.45;;;10.13;;
57856;SDS011;43683;48.650;9.290;2023-12-07T00:19:28;15.32;;;10.27;;
57856;SDS011;43683;48.650;9.290;2023-12-07T00:21:54;15.85;;;10.40;;
57856;SDS011;43683;48.650;9.290;2023-12-07T00:24:19;15.10;;;10.20;;
57856;SDS011;43683;48.650;9.290;2023-12-07T00:26:45;11.35;;;8.90;;
57856;SDS011;43683;48.650;9.290;2023-12-07T00:29:10;15.25;;;9.40;;
57856;SDS011;43683;48.650;9.290;2023-12-07T00:31:35;13.55;;;9.20;;
57856;SDS011;43683;48.650;9.290;2023-12-07T00:34:02;13.63;;;9.45;;
57856;SDS011;43683;48.650;9.290;2023-12-07T00:36:27;16.75;;;9.98;;
57856;SDS011;43683;48.650;9.290;2023-12-07T00:38:53;15.88;;;10.38;;
57856;SDS011;43683;48.650;9.290;2023-12-07T00:41:18;16.65;;;10.07;;
57856;SDS011;43683;48.650;9.290;2023-12-07T00:43:44;14.55;;;9.75;;
57856;SDS011;43683;48.650;9.290;2023-12-07T00:46:10;14.57;;;9.57;;
57856;SDS011;43683;48.650;9.290;2023-12-07T00:48:36;14.38;;;9.90;;
57856;SDS011;43683;48.650;9.290;2023-12-07T00:51:01;15.43;;;10.18;;
57856;SDS011;43683;48.650;9.290;2023-12-07T00:53:27;14.50;;;9.27;;
57856;SDS011;43683;48.650;9.290;2023-12-07T00:55:53;16.38;;;10.30;;
57856;SDS011;43683;48.650;9.290;2023-12-07T00:58:18;17.63;;;10.30;;
57856;SDS011;43683;48.650;9.290;2023-12-07T01:00:44;15.13;;;9.85;;
57856;SDS011;43683;48.650;9.290;2023-12-07T01:03:09;16.27;;;10.20;;
57856;SDS011;43683;48.650;9.290;2023-12-07T01:05:35;17.55;;;10.10;;
57856;SDS011;43683;48.650;9.290;2023-12-07T01:08:00;15.15;;;9.75;;
57856;SDS011;43683;48.650;9.290;2023-12-07T01:10:26;16.05;;;10.15;;
57856;SDS011;43683;48.650;9.290;2023-12-07T01:12:51;17.95;;;10.18;;
57856;SDS011;43683;48.650;9.290;2023-12-07T01:15:17;16.38;;;10.75;;
57856;SDS011;43683;48.650;9.290;2023-12-07T01:17:42;13.10;;;9.55;;
57856;SDS011;43683;48.650;9.290;2023-12-07T01:20:08;16.35;;;9.90;;
57856;SDS011;43683;48.650;9.290;2023-12-07T01:22:39;14.88;;;9.43;;
57856;SDS011;43683;48.650;9.290;2023-12-07T01:25:07;14.85;;;9.65;;
57856;SDS011;43683;48.650;9.290;2023-12-07T01:27:33;17.10;;;10.35;;
57856;SDS011;43683;48.650;9.290;2023-12-07T01:29:59;16.48;;;10.43;;
57856;SDS011;43683;48.650;9.290;2023-12-07T01:32:25;14.13;;;9.50;;
57856;SDS011;43683;48.650;9.290;2023-12-07T01:34:50;15.10;;;10.15;;
57856;SDS011;43683;48.650;9.290;2023-12-07T01:37:16;15.68;;;9.45;;
57856;SDS011;43683;48.650;9.290;2023-12-07T01:39:41;14.65;;;9.65;;
57856;SDS011;43683;48.650;9.290;2023-12-07T01:42:08;17.58;;;10.32;;
57856;SDS011;43683;48.650;9.290;2023-12-07T01:44:34;14.90;;;10.45;;
57856;SDS011;43683;48.650;9.290;2023-12-07T01:46:59;16.25;;;9.93;;
57856;SDS011;43683;48.650;9.290;2023-12-07T01:49:26;16.13;;;10.10;;
57856;SDS011;43683;48.650;9.290;2023-12-07T01:51:53;16.67;;;9.55;;
57856;SDS011;43683;48.650;9.290;2023-12-07T01:54:19;17.55;;;10.65;;
57856;SDS011;43683;48.650;9.290;2023-12-07T01:56:45;18.20;;;10.45;;
57856;SDS011;43683;48.650;9.290;2023-12-07T01:59:11;16.17;;;10.15;;
57856;SDS011;43683;48.650;9.290;2023-12-07T02:01:36;16.98;;;10.75;;
57856;SDS011;43683;48.650;9.290;2023-12-07T02:04:02;20.65;;;11.57;;
57856;SDS011;43683;48.650;9.290;2023-12-07T02:06:27;16.15;;;10.75;;
57856;SDS011;43683;48.650;9.290;2023-12-07T02:08:53;18.17;;;11.63;;
57856;SDS011;43683;48.650;9.290;2023-12-07T02:11:19;17.92;;;10.27;;
57856;SDS011;43683;48.650;9.290;2023-12-07T02:13:44;19.00;;;10.85;;
57856;SDS011;43683;48.650;9.290;2023-12-07T02:21:59;16.35;;;10.35;;
57856;SDS011;43683;48.650;9.290;2023-12-07T02:24:33;17.50;;;10.25;;
57856;SDS011;43683;48.650;9.290;2023-12-07T02:27:02;20.65;;;11.35;;
57856;SDS011;43683;48.650;9.290;2023-12-07T02:29:28;23.20;;;12.77;;
57856;SDS011;43683;48.650;9.290;2023-12-07T02:31:53;20.10;;;11.68;;
57856;SDS011;43683;48.650;9.290;2023-12-07T02:34:19;17.67;;;11.30;;
57856;SDS011;43683;48.650;9.290;2023-12-07T02:36:45;18.95;;;10.88;;
57856;SDS011;43683;48.650;9.290;2023-12-07T02:41:38;18.63;;;10.93;;
57856;SDS011;43683;48.650;9.290;2023-12-07T02:44:05;16.10;;;9.90;;
57856;SDS011;43683;48.650;9.290;2023-12-07T02:46:32;17.90;;;10.80;;
57856;SDS011;43683;48.650;9.290;2023-12-07T02:48:58;16.10;;;10.80;;
57856;SDS011;43683;48.650;9.290;2023-12-07T02:51:24;17.65;;;10.75;;
57856;SDS011;43683;48.650;9.290;2023-12-07T02:53:49;17.27;;;10.80;;
57856;SDS011;43683;48.650;9.290;2023-12-07T02:56:15;15.18;;;10.02;;
57856;SDS011;43683;48.650;9.290;2023-12-07T02:58:40;16.27;;;10.45;;
57856;SDS011;43683;48.650;9.290;2023-12-07T03:01:06;16.23;;;10.13;;
57856;SDS011;43683;48.650;9.290;2023-12-07T03:03:33;17.40;;;10.48;;
57856;SDS011;43683;48.650;9.290;2023-12-07T03:05:58;16.38;;;10.52;;
57856;SDS011;43683;48.650;9.290;2023-12-07T03:08:24;18.67;;;11.45;;
57856;SDS011;43683;48.650;9.290;2023-12-07T03:10:49;18.80;;;11.52;;
57856;SDS011;43683;48.650;9.290;2023-12-07T03:13:15;17.25;;;10.52;;
57856;SDS011;43683;48.650;9.290;2023-12-07T03:15:41;14.75;;;10.27;;
57856;SDS011;43683;48.650;9.290;2023-12-07T03:18:06;18.20;;;10.50;;
57856;SDS011;43683;48.650;9.290;2023-12-07T03:20:32;16.58;;;10.35;;
57856;SDS011;43683;48.650;9.290;2023-12-07T03:22:59;18.88;;;11.40;;
57856;SDS011;43683;48.650;9.290;2023-12-07T03:25:25;18.08;;;11.07;;
57856;SDS011;43683;48.650;9.290;2023-12-07T03:27:50;19.00;;;11.02;;
57856;SDS011;43683;48.650;9.290;2023-12-07T03:30:16;18.02;;;11.18;;
57856;SDS011;43683;48.650;9.290;2023-12-07T03:32:41;18.88;;;11.13;;
57856;SDS011;43683;48.650;9.290;2023-12-07T03:35:07;20.00;;;11.55;;
57856;SDS011;43683;48.650;9.290;2023-12-07T03:37:32;17.90;;;10.57;;
57856;SDS011;43683;48.650;9.290;2023-12-07T03:39:58;17.20;;;10.73;;
57856;SDS011;43683;48.650;9.290;2023-12-07T03:42:23;19.02;;;11.70;;
57856;SDS011;43683;48.650;9.290;2023-12-07T03:44:49;19.35;;;10.95;;
57856;SDS011;43683;48.650;9.290;2023-12-07T03:47:14;19.45;;;10.52;;
57856;SDS011;43683;48.650;9.290;2023-12-07T03:49:40;18.95;;;11.05;;
57856;SDS011;43683;48.650;9.290;2023-12-07T03:52:06;19.08;;;11.07;;
57856;SDS011;43683;48.650;9.290;2023-12-07T03:54:31;16.75;;;11.50;;
57856;SDS011;43683;48.650;9.290;2023-12-07T03:56:57;18.45;;;11.30;;
57856;SDS011;43683;48.650;9.290;2023-12-07T03:59:23;18.25;;;11.55;;
57856;SDS011;43683;48.650;9.290;2023-12-07T04:01:48;18.90;;;12.02;;
57856;SDS011;43683;48.650;9.290;2023-12-07T04:04:14;22.10;;;13.30;;
57856;SDS011;43683;48.650;9.290;2023-12-07T04:06:40;21.33;;;12.60;;
57856;SDS011;43683;48.650;9.290;2023-12-07T04:09:05;21.98;;;13.50;;
57856;SDS011;43683;48.650;9.290;2023-12-07T04:11:31;23.42;;;13.52;;
57856;SDS011;43683;48.650;9.290;2023-12-07T04:13:56;24.55;;;14.73;;
57856;SDS011;43683;48.650;9.290;2023-12-07T04:16:22;20.63;;;12.88;;
57856;SDS011;43683;48.650;9.290;2023-12-07T04:18:47;21.02;;;12.52;;
57856;SDS011;43683;48.650;9.290;2023-12-07T04:21:13;20.35;;;11.90;;
57856;SDS011;43683;48.650;9.290;2023-12-07T04:23:39;21.50;;;11.85;;
57856;SDS011;43683;48.650;9.290;2023-12-07T04:26:04;20.42;;;11.38;;
57856;SDS011;43683;48.650;9.290;2023-12-07T04:28:30;19.30;;;11.27;;
57856;SDS011;43683;48.650;9.290;2023-12-07T04:30:56;18.67;;;10.85;;
57856;SDS011;43683;48.650;9.290;2023-12-07T04:33:21;19.25;;;11.52;;
57856;SDS011;43683;48.650;9.290;2023-12-07T04:35:47;19.80;;;11.07;;
57856;SDS011;43683;48.650;9.290;2023-12-07T04:38:12;20.73;;;11.45;;
57856;SDS011;43683;48.650;9.290;2023-12-07T04:40:38;19.23;;;11.57;;
57856;SDS011;43683;48.650;9.290;2023-12-07T04:43:03;21.10;;;11.30;;
57856;SDS011;43683;48.650;9.290;2023-12-07T04:45:29;17.13;;;10.43;;
57856;SDS011;43683;48.650;9.290;2023-12-07T04:47:54;18.20;;;10.70;;
57856;SDS011;43683;48.650;9.290;2023-12-07T04:50:22;18.30;;;10.60;;
57856;SDS011;43683;48.650;9.290;2023-12-07T04:52:48;19.38;;;11.18;;
57856;SDS011;43683;48.650;9.290;2023-12-07T04:55:13;19.77;;;11.55;;
57856;SDS011;43683;48.650;9.290;2023-12-07T04:57:40;16.77;;;10.50;;
57856;SDS011;43683;48.650;9.290;2023-12-07T05:00:06;17.08;;;10.95;;
57856;SDS011;43683;48.650;9.290;2023-12-07T05:02:32;20.02;;;11.75;;
57856;SDS011;43683;48.650;9.290;2023-12-07T05:04:57;20.88;;;11.63;;
57856;SDS011;43683;48.650;9.290;2023-12-07T05:07:23;19.77;;;11.73;;
57856;SDS011;43683;48.650;9.290;2023-12-07T05:09:49;18.77;;;11.40;;
57856;SDS011;43683;48.650;9.290;2023-12-07T05:12:15;17.17;;;11.07;;
57856;SDS011;43683;48.650;9.290;2023-12-07T05:14:41;17.52;;;11.95;;
57856;SDS011;43683;48.650;9.290;2023-12-07T05:17:07;16.10;;;10.57;;
57856;SDS011;43683;48.650;9.290;2023-12-07T05:19:32;17.45;;;11.02;;
57856;SDS011;43683;48.650;9.290;2023-12-07T05:21:58;18.20;;;10.63;;
57856;SDS011;43683;48.650;9.290;2023-12-07T05:24:24;18.58;;;11.52;;
57856;SDS011;43683;48.650;9.290;2023-12-07T05:26:49;18.95;;;11.65;;
57856;SDS011;43683;48.650;9.290;2023-12-07T05:29:15;17.85;;;12.02;;
57856;SDS011;43683;48.650;9.290;2023-12-07T05:31:40;18.73;;;11.63;;
57856;SDS011;43683;48.650;9.290;2023-12-07T05:34:07;20.48;;;11.45;;
57856;SDS011;43683;48.650;9.290;2023-12-07T05:36:32;21.15;;;12.15;;
57856;SDS011;43683;48.650;9.290;2023-12-07T05:38:58;18.67;;;11.30;;
57856;SDS011;43683;48.650;9.290;2023-12-07T05:41:24;17.60;;;11.80;;
57856;SDS011;43683;48.650;9.290;2023-12-07T05:43:50;19.58;;;12.05;;
57856;SDS011;43683;48.650;9.290;2023-12-07T05:46:16;21.90;;;11.90;;
57856;SDS011;43683;48.650;9.290;2023-12-07T05:48:41;19.23;;;11.93;;
57856;SDS011;43683;48.650;9.290;2023-12-07T05:51:13;18.98;;;11.95;;
57856;SDS011;43683;48.650;9.290;2023-12-07T05:53:42;21.42;;;12.07;;
57856;SDS011;43683;48.650;9.290;2023-12-07T05:56:08;17.73;;;11.63;;
57856;SDS011;43683;48.650;9.290;2023-12-07T05:58:34;18.83;;;12.20;;
57856;SDS011;43683;48.650;9.290;2023-12-07T06:01:00;21.15;;;13.25;;
57856;SDS011;43683;48.650;9.290;2023-12-07T06:03:27;22.60;;;11.85;;
57856;SDS011;43683;48.650;9.290;2023-12-07T06:05:52;20.17;;;11.93;;
57856;SDS011;43683;48.650;9.290;2023-12-07T06:08:18;20.33;;;11.75;;
57856;SDS011;43683;48.650;9.290;2023-12-07T06:10:44;20.92;;;12.10;;
57856;SDS011;43683;48.650;9.290;2023-12-07T06:13:10;22.92;;;13.23;;
57856;SDS011;43683;48.650;9.290;2023-12-07T06:15:37;18.65;;;12.95;;
57856;SDS011;43683;48.650;9.290;2023-12-07T06:18:02;21.98;;;13.50;;
57856;SDS011;43683;48.650;9.290;2023-12-07T06:20:28;23.50;;;14.90;;
57856;SDS011;43683;48.650;9.290;2023-12-07T06:22:54;22.20;;;13.32;;
57856;SDS011;43683;48.650;9.290;2023-12-07T06:25:19;22.65;;;14.23;;
57856;SDS011;43683;48.650;9.290;2023-12-07T06:27:45;24.27;;;14.20;;
57856;SDS011;43683;48.650;9.290;2023-12-07T06:30:11;19.73;;;12.50;;
57856;SDS011;43683;48.650;9.290;2023-12-07T06:32:36;25.67;;;15.48;;
57856;SDS011;43683;48.650;9.290;2023-12-07T06:35:02;27.95;;;16.38;;
57856;SDS011;43683;48.650;9.290;2023-12-07T06:37:29;26.13;;;16.77;;
57856;SDS011;43683;48.650;9.290;2023-12-07T06:39:55;25.60;;;15.10;;
57856;SDS011;43683;48.650;9.290;2023-12-07T06:42:20;25.95;;;16.00;;
57856;SDS011;43683;48.650;9.290;2023-12-07T06:44:47;31.98;;;15.88;;
57856;SDS011;43683;48.650;9.290;2023-12-07T06:47:16;27.45;;;16.58;;
57856;SDS011;43683;48.650;9.290;2023-12-07T06:49:41;25.27;;;15.82;;
57856;SDS011;43683;48.650;9.290;2023-12-07T06:52:07;33.58;;;17.58;;
57856;SDS011;43683;48.650;9.290;2023-12-07T06:54:33;28.35;;;18.33;;
57856;SDS011;43683;48.650;9.290;2023-12-07T06:56:58;29.85;;;17.70;;
57856;SDS011;43683;48.650;9.290;2023-12-07T06:59:24;23.75;;;16.65;;
57856;SDS011;43683;48.650;9.290;2023-12-07T07:01:50;29.38;;;17.08;;
57856;SDS011;43683;48.650;9.290;2023-12-07T07:04:15;31.23;;;17.67;;
57856;SDS011;43683;48.650;9.290;2023-12-07T07:06:41;32.78;;;17.23;;
57856;SDS011;43683;48.650;9.290;2023-12-07T07:09:07;26.58;;;16.95;;
57856;SDS011;43683;48.650;9.290;2023-12-07T07:11:32;30.23;;;16.88;;
57856;SDS011;43683;48.650;9.290;2023-12-07T07:13:59;29.55;;;17.83;;
57856;SDS011;43683;48.650;9.290;2023-12-07T07:16:25;27.70;;;17.15;;
57856;SDS011;43683;48.650;9.290;2023-12-07T07:18:50;28.10;;;16.27;;
57856;SDS011;43683;48.650;9.290;2023-12-07T07:21:16;26.63;;;15.75;;
57856;SDS011;43683;48.650;9.290;2023-12-07T07:23:41;25.48;;;14.18;;
57856;SDS011;43683;48.650;9.290;2023-12-07T07:26:07;20.80;;;13.13;;
57856;SDS011;43683;48.650;9.290;2023-12-07T07:28:33;22.52;;;13.15;;
57856;SDS011;43683;48.650;9.290;2023-12-07T07:30:59;22.75;;;14.43;;
57856;SDS011;43683;48.650;9.290;2023-12-07T07:33:25;19.50;;;13.70;;
57856;SDS011;43683;48.650;9.290;2023-12-07T07:35:50;22.92;;;13.68;;
57856;SDS011;43683;48.650;9.290;2023-12-07T07:38:16;23.33;;;14.90;;
57856;SDS011;43683;48.650;9.290;2023-12-07T07:40:41;20.85;;;13.65;;
57856;SDS011;43683;48.650;9.290;2023-12-07T07:43:07;26.05;;;14.95;;
57856;SDS011;43683;48.650;9.290;2023-12-07T07:45:33;26.33;;;14.35;;
57856;SDS011;43683;48.650;9.290;2023-12-07T07:48:00;28.23;;;15.90;;
57856;SDS011;43683;48.650;9.290;2023-12-07T07:50:25;25.25;;;14.68;;
57856;SDS011;43683;48.650;9.290;2023-12-07T07:52:51;25.02;;;14.75;;
57856;SDS011;43683;48.650;9.290;2023-12-07T07:55:16;24.80;;;15.52;;
57856;SDS011;43683;48.650;9.290;2023-12-07T07:57:42;29.42;;;16.15;;
57856;SDS011;43683;48.650;9.290;2023-12-07T08:00:08;26.83;;;16.60;;
57856;SDS011;43683;48.650;9.290;2023-12-07T08:02:34;23.92;;;16.33;;
57856;SDS011;43683;48.650;9.290;2023-12-07T08:05:01;32.95;;;17.73;;
57856;SDS011;43683;48.650;9.290;2023-12-07T08:07:27;25.23;;;16.27;;
57856;SDS011;43683;48.650;9.290;2023-12-07T08:09:52;28.02;;;15.45;;
57856;SDS011;43683;48.650;9.290;2023-12-07T08:12:18;26.45;;;15.48;;
57856;SDS011;43683;48.650;9.290;2023-12-07T08:14:44;28.15;;;18.15;;
57856;SDS011;43683;48.650;9.290;2023-12-07T08:17:11;28.15;;;17.00;;
57856;SDS011;43683;48.650;9.290;2023-12-07T08:19:36;32.95;;;17.10;;
57856;SDS011;43683;48.650;9.290;2023-12-07T08:22:03;25.88;;;16.55;;
57856;SDS011;43683;48.650;9.290;2023-12-07T08:24:28;27.60;;;17.15;;
57856;SDS011;43683;48.650;9.290;2023-12-07T08:26:54;24.83;;;15.30;;
57856;SDS011;43683;48.650;9.290;2023-12-07T08:29:19;26.52;;;15.68;;
57856;SDS011;43683;48.650;9.290;2023-12-07T08:31:45;25.05;;;16.40;;
57856;SDS011;43683;48.650;9.290;2023-12-07T08:34:12;27.45;;;14.65;;
57856;SDS011;43683;48.650;9.290;2023-12-07T08:36:37;29.17;;;14.73;;
57856;SDS011;43683;48.650;9.290;2023-12-07T08:39:03;28.80;;;16.67;;
57856;SDS011;43683;48.650;9.290;2023-12-07T08:41:28;26.02;;;15.32;;
57856;SDS011;43683;48.650;9.290;2023-12-07T08:43:54;23.92;;;14.98;;
57856;SDS011;43683;48.650;9.290;2023-12-07T08:46:19;19.65;;;13.77;;
57856;SDS011;43683;48.650;9.290;2023-12-07T08:48:45;16.50;;;10.98;;
57856;SDS011;43683;48.650;9.290;2023-12-07T08:51:10;16.50;;;11.07;;
57856;SDS011;43683;48.650;9.290;2023-12-07T08:53:36;13.77;;;8.95;;
57856;SDS011;43683;48.650;9.290;2023-12-07T08:56:03;12.40;;;8.60;;
57856;SDS011;43683;48.650;9.290;2023-12-07T08:58:29;12.38;;;8.18;;
57856;SDS011;43683;48.650;9.290;2023-12-07T09:00:54;12.68;;;9.50;;
57856;SDS011;43683;48.650;9.290;2023-12-07T09:03:20;11.85;;;8.18;;
57856;SDS011;43683;48.650;9.290;2023-12-07T09:05:46;11.95;;;8.07;;
57856;SDS011;43683;48.650;9.290;2023-12-07T09:08:11;10.75;;;7.88;;
57856;SDS011;43683;48.650;9.290;2023-12-07T09:10:37;12.63;;;7.40;;
57856;SDS011;43683;48.650;9.290;2023-12-07T09:13:02;11.48;;;6.45;;
57856;SDS011;43683;48.650;9.290;2023-12-07T09:15:28;9.25;;;5.88;;
57856;SDS011;43683;48.650;9.290;2023-12-07T09:17:54;9.20;;;5.93;;
57856;SDS011;43683;48.650;9.290;2023-12-07T09:20:19;10.55;;;6.20;;
57856;SDS011;43683;48.650;9.290;2023-12-07T09:22:45;9.68;;;6.22;;
57856;SDS011;43683;48.650;9.290;2023-12-07T09:25:11;9.02;;;5.50;;
57856;SDS011;43683;48.650;9.290;2023-12-07T09:27:38;8.23;;;5.82;;
57856;SDS011;43683;48.650;9.290;2023-12-07T09:30:04;10.85;;;6.30;;
57856;SDS011;43683;48.650;9.290;2023-12-07T09:32:31;9.00;;;5.43;;
57856;SDS011;43683;48.650;9.290;2023-12-07T09:34:57;8.60;;;5.32;;
57856;SDS011;43683;48.650;9.290;2023-12-07T09:37:22;8.70;;;5.47;;
57856;SDS011;43683;48.650;9.290;2023-12-07T09:39:53;9.27;;;5.78;;
57856;SDS011;43683;48.650;9.290;2023-12-07T09:42:19;8.25;;;5.57;;
57856;SDS011;43683;48.650;9.290;2023-12-07T09:44:44;8.75;;;5.45;;
57856;SDS011;43683;48.650;9.290;2023-12-07T09:47:10;8.20;;;5.28;;
57856;SDS011;43683;48.650;9.290;2023-12-07T09:49:36;7.18;;;5.20;;
57856;SDS011;43683;48.650;9.290;2023-12-07T09:52:02;8.25;;;5.28;;
57856;SDS011;43683;48.650;9.290;2023-12-07T09:54:28;9.70;;;5.78;;
57856;SDS011;43683;48.650;9.290;2023-12-07T09:56:55;9.07;;;5.47;;
57856;SDS011;43683;48.650;9.290;2023-12-07T09:59:22;10.37;;;6.23;;
57856;SDS011;43683;48.650;9.290;2023-12-07T10:01:47;9.43;;;5.88;;
57856;SDS011;43683;48.650;9.290;2023-12-07T10:04:16;8.43;;;5.80;;
57856;SDS011;43683;48.650;9.290;2023-12-07T10:06:50;8.93;;;6.10;;
57856;SDS011;43683;48.650;9.290;2023-12-07T10:09:17;9.88;;;5.57;;
57856;SDS011;43683;48.650;9.290;2023-12-07T10:11:44;9.30;;;5.43;;
57856;SDS011;43683;48.650;9.290;2023-12-07T10:14:09;7.72;;;5.15;;
57856;SDS011;43683;48.650;9.290;2023-12-07T10:16:36;8.55;;;5.70;;
57856;SDS011;43683;48.650;9.290;2023-12-07T10:19:17;9.85;;;6.82;;
57856;SDS011;43683;48.650;9.290;2023-12-07T10:21:46;8.52;;;5.80;;
57856;SDS011;43683;48.650;9.290;2023-12-07T10:24:12;8.23;;;5.38;;
57856;SDS011;43683;48.650;9.290;2023-12-07T10:26:38;9.45;;;5.95;;
57856;SDS011;43683;48.650;9.290;2023-12-07T10:29:05;8.85;;;6.13;;
57856;SDS011;43683;48.650;9.290;2023-12-07T10:31:31;9.57;;;6.88;;
57856;SDS011;43683;48.650;9.290;2023-12-07T10:33:58;7.93;;;5.72;;
57856;SDS011;43683;48.650;9.290;2023-12-07T10:36:24;10.32;;;6.13;;
57856;SDS011;43683;48.650;9.290;2023-12-07T10:38:50;9.75;;;6.10;;
57856;SDS011;43683;48.650;9.290;2023-12-07T10:41:16;8.23;;;5.55;;
57856;SDS011;43683;48.650;9.290;2023-12-07T10:43:44;8.73;;;5.15;;
57856;SDS011;43683;48.650;9.290;2023-12-07T10:46:17;8.30;;;5.38;;
57856;SDS011;43683;48.650;9.290;2023-12-07T10:48:45;7.72;;;4.78;;
57856;SDS011;43683;48.650;9.290;2023-12-07T10:51:14;7.28;;;4.50;;
57856;SDS011;43683;48.650;9.290;2023-12-07T10:53:48;6.60;;;4.40;;
57856;SDS011;43683;48.650;9.290;2023-12-07T10:56:16;8.13;;;4.30;;
57856;SDS011;43683;48.650;9.290;2023-12-07T10:58:51;8.05;;;4.55;;
57856;SDS011;43683;48.650;9.290;2023-12-07T11:01:19;6.25;;;4.55;;
57856;SDS011;43683;48.650;9.290;2023-12-07T11:03:45;9.10;;;4.47;;
57856;SDS011;43683;48.650;9.290;2023-12-07T11:06:14;6.68;;;4.38;;
57856;SDS011;43683;48.650;9.290;2023-12-07T11:08:44;7.82;;;4.63;;
57856;SDS011;43683;48.650;9.290;2023-12-07T11:11:20;7.22;;;4.40;;
57856;SDS011;43683;48.650;9.290;2023-12-07T11:13:56;7.90;;;4.72;;
57856;SDS011;43683;48.650;9.290;2023-12-07T11:18:57;6.72;;;4.70;;
57856;SDS011;43683;48.650;9.290;2023-12-07T11:21:23;9.93;;;6.35;;
57856;SDS011;43683;48.650;9.290;2023-12-07T11:23:49;9.50;;;5.47;;
57856;SDS011;43683;48.650;9.290;2023-12-07T11:26:14;7.65;;;4.30;;
57856;SDS011;43683;48.650;9.290;2023-12-07T11:28:44;7.95;;;4.30;;
57856;SDS011;43683;48.650;9.290;2023-12-07T11:31:11;6.25;;;3.70;;
57856;SDS011;43683;48.650;9.290;2023-12-07T11:33:40;6.78;;;4.30;;
57856;SDS011;43683;48.650;9.290;2023-12-07T11:36:06;7.78;;;4.47;;
57856;SDS011;43683;48.650;9.290;2023-12-07T11:41:00;8.55;;;4.47;;
57856;SDS011;43683;48.650;9.290;2023-12-07T11:46:03;5.88;;;4.25;;
57856;SDS011;43683;48.650;9.290;2023-12-07T11:48:28;7.07;;;4.57;;
57856;SDS011;43683;48.650;9.290;2023-12-07T11:50:55;5.93;;;4.22;;
57856;SDS011;43683;48.650;9.290;2023-12-07T11:53:21;6.95;;;4.30;;
57856;SDS011;43683;48.650;9.290;2023-12-07T11:58:14;7.82;;;4.65;;
57856;SDS011;43683;48.650;9.290;2023-12-07T12:00:39;8.38;;;5.20;;
57856;SDS011;43683;48.650;9.290;2023-12-07T12:03:05;7.20;;;4.93;;
57856;SDS011;43683;48.650;9.290;2023-12-07T12:05:31;9.02;;;5.25;;
57856;SDS011;43683;48.650;9.290;2023-12-07T12:07:56;8.85;;;5.47;;
57856;SDS011;43683;48.650;9.290;2023-12-07T12:10:22;9.05;;;5.63;;
57856;SDS011;43683;48.650;9.290;2023-12-07T12:12:50;9.77;;;5.40;;
57856;SDS011;43683;48.650;9.290;2023-12-07T12:15:16;9.52;;;5.40;;
57856;SDS011;43683;48.650;9.290;2023-12-07T12:17:42;10.90;;;5.63;;
57856;SDS011;43683;48.650;9.290;2023-12-07T12:20:08;10.85;;;4.80;;
57856;SDS011;43683;48.650;9.290;2023-12-07T12:22:36;8.18;;;5.57;;
57856;SDS011;43683;48.650;9.290;2023-12-07T12:25:02;13.68;;;7.22;;
57856;SDS011;43683;48.650;9.290;2023-12-07T12:27:28;8.35;;;5.57;;
57856;SDS011;43683;48.650;9.290;2023-12-07T12:29:54;9.55;;;4.95;;
57856;SDS011;43683;48.650;9.290;2023-12-07T12:32:21;9.75;;;4.90;;
57856;SDS011;43683;48.650;9.290;2023-12-07T12:34:50;9.13;;;5.43;;
57856;SDS011;43683;48.650;9.290;2023-12-07T12:37:16;8.63;;;5.75;;
57856;SDS011;43683;48.650;9.290;2023-12-07T12:39:41;11.13;;;5.28;;
57856;SDS011;43683;48.650;9.290;2023-12-07T12:42:07;7.45;;;4.82;;
57856;SDS011;43683;48.650;9.290;2023-12-07T12:44:33;7.88;;;4.47;;
57856;SDS011;43683;48.650;9.290;2023-12-07T12:47:00;9.30;;;4.30;;
57856;SDS011;43683;48.650;9.290;2023-12-07T12:49:34;9.52;;;5.10;;
57856;SDS011;43683;48.650;9.290;2023-12-07T12:52:04;8.10;;;4.53;;
57856;SDS011;43683;48.650;9.290;2023-12-07T12:54:34;7.32;;;5.30;;
57856;SDS011;43683;48.650;9.290;2023-12-07T12:57:00;7.35;;;4.82;;
57856;SDS011;43683;48.650;9.290;2023-12-07T12:59:26;7.03;;;4.45;;
57856;SDS011;43683;48.650;9.290;2023-12-07T13:01:52;7.18;;;4.07;;
57856;SDS011;43683;48.650;9.290;2023-12-07T13:04:18;5.68;;;3.50;;
57856;SDS011;43683;48.650;9.290;2023-12-07T13:06:44;4.90;;;3.00;;
57856;SDS011;43683;48.650;9.290;2023-12-07T13:09:10;5.30;;;3.13;;
57856;SDS011;43683;48.650;9.290;2023-12-07T13:11:35;6.18;;;3.50;;
57856;SDS011;43683;48.650;9.290;2023-12-07T13:14:01;4.63;;;2.70;;
57856;SDS011;43683;48.650;9.290;2023-12-07T13:16:31;4.75;;;2.70;;
57856;SDS011;43683;48.650;9.290;2023-12-07T13:18:57;4.18;;;2.10;;
57856;SDS011;43683;48.650;9.290;2023-12-07T13:21:23;2.97;;;2.13;;
57856;SDS011;43683;48.650;9.290;2023-12-07T13:23:48;2.40;;;2.15;;
57856;SDS011;43683;48.650;9.290;2023-12-07T13:26:14;4.03;;;1.90;;
57856;SDS011;43683;48.650;9.290;2023-12-07T13:28:39;3.45;;;1.95;;
57856;SDS011;43683;48.650;9.290;2023-12-07T13:31:05;2.70;;;1.80;;
57856;SDS011;43683;48.650;9.290;2023-12-07T13:33:31;2.63;;;1.73;;
57856;SDS011;43683;48.650;9.290;2023-12-07T13:35:57;2.78;;;1.90;;
57856;SDS011;43683;48.650;9.290;2023-12-07T13:38:22;2.95;;;1.55;;
57856;SDS011;43683;48.650;9.290;2023-12-07T13:40:48;2.75;;;1.63;;
57856;SDS011;43683;48.650;9.290;2023-12-07T13:43:14;2.38;;;1.85;;
57856;SDS011;43683;48.650;9.290;2023-12-07T13:45:40;2.28;;;1.77;;
57856;SDS011;43683;48.650;9.290;2023-12-07T13:48:07;2.95;;;1.80;;
57856;SDS011;43683;48.650;9.290;2023-12-07T13:50:33;4.90;;;2.20;;
57856;SDS011;43683;48.650;9.290;2023-12-07T13:52:58;3.45;;;1.88;;
57856;SDS011;43683;48.650;9.290;2023-12-07T13:55:24;3.15;;;2.03;;
57856;SDS011;43683;48.650;9.290;2023-12-07T13:57:49;2.17;;;1.92;;
57856;SDS011;43683;48.650;9.290;2023-12-07T14:00:17;3.55;;;2.03;;
57856;SDS011;43683;48.650;9.290;2023-12-07T14:02:44;2.17;;;1.95;;
57856;SDS011;43683;48.650;9.290;2023-12-07T14:05:10;2.88;;;1.80;;
57856;SDS011;43683;48.650;9.290;2023-12-07T14:07:36;3.85;;;2.13;;
57856;SDS011;43683;48.650;9.290;2023-12-07T14:10:01;2.72;;;1.90;;
57856;SDS011;43683;48.650;9.290;2023-12-07T14:12:27;2.42;;;1.80;;
57856;SDS011;43683;48.650;9.290;2023-12-07T14:14:54;6.07;;;2.25;;
57856;SDS011;43683;48.650;9.290;2023-12-07T14:17:22;2.13;;;1.85;;
57856;SDS011;43683;48.650;9.290;2023-12-07T14:19:48;5.45;;;2.00;;
57856;SDS011;43683;48.650;9.290;2023-12-07T14:22:14;3.35;;;2.10;;
57856;SDS011;43683;48.650;9.290;2023-12-07T14:24:40;2.95;;;2.10;;
57856;SDS011;43683;48.650;9.290;2023-12-07T14:27:06;4.95;;;2.53;;
57856;SDS011;43683;48.650;9.290;2023-12-07T14:29:32;6.93;;;2.50;;
57856;SDS011;43683;48.650;9.290;2023-12-07T14:31:58;5.07;;;2.55;;
57856;SDS011;43683;48.650;9.290;2023-12-07T14:34:25;7.85;;;2.72;;
57856;SDS011;43683;48.650;9.290;2023-12-07T14:36:52;4.65;;;2.60;;
57856;SDS011;43683;48.650;9.290;2023-12-07T14:39:18;6.93;;;3.28;;
57856;SDS011;43683;48.650;9.290;2023-12-07T14:41:45;4.97;;;3.00;;